Time;durP1;ratioP1;P1;durP2;ratioP2;P2;SDS_P1;SDS_P2;PMS_P1;PMS_P2;Temp;Humidity;BMP_temperature;BMP_pressure;BME280_temperature;BME280_humidity;BME280_pressure;Samples;Min_cycle;Max_cycle;Signal;HPM_P1;HPM_P2
2022/01/24 00:01:19;;;;;;;98.15;33.70;;;;;;;4.48;100.00;103163.59;4982604;28;20048;-82
2022/01/24 00:03:45;;;;;;;111.47;37.50;;;;;;;4.55;100.00;103161.69;4983660;28;20057;-81
2022/01/24 00:06:14;;;;;;;100.15;33.95;;;;;;;4.54;100.00;103159.88;4987320;28;20030;-80
2022/01/24 00:08:40;;;;;;;107.43;35.75;;;;;;;4.60;100.00;103163.38;4997649;28;20018;-81
2022/01/24 00:11:10;;;;;;;106.90;37.03;;;;;;;4.55;100.00;103167.09;5025550;28;20053;-81
2022/01/24 00:26:51;;;;;;;92.63;32.15;;;;;;;4.49;100.00;103173.50;5001527;28;20593;-81
2022/01/24 00:29:19;;;;;;;91.65;32.10;;;;;;;4.60;100.00;103178.78;4996549;28;20050;-82
2022/01/24 00:31:46;;;;;;;89.45;30.83;;;;;;;4.54;100.00;103176.16;4990453;28;20109;-80
2022/01/24 00:34:13;;;;;;;92.05;30.63;;;;;;;4.55;100.00;103180.66;5013324;28;20043;-80
2022/01/24 00:36:39;;;;;;;93.82;33.00;;;;;;;4.48;100.00;103169.03;5000143;28;20038;-80
2022/01/24 00:39:06;;;;;;;83.53;31.15;;;;;;;4.49;100.00;103175.34;4983222;28;20072;-79
2022/01/24 00:41:40;;;;;;;88.72;30.35;;;;;;;4.51;100.00;103162.63;4982482;28;20030;-80
2022/01/24 00:46:58;;;;;;;86.93;31.20;;;;;;;4.49;100.00;103162.66;4994827;28;20033;-80
2022/01/24 00:54:52;;;;;;;93.40;31.95;;;;;;;4.40;100.00;103161.00;5026101;28;20054;-80
2022/01/24 00:57:21;;;;;;;77.15;29.40;;;;;;;4.40;100.00;103158.28;4998080;28;20042;-79
2022/01/24 00:59:48;;;;;;;88.40;30.60;;;;;;;4.38;100.00;103157.44;5013754;28;20022;-81
2022/01/24 01:02:14;;;;;;;80.35;30.38;;;;;;;4.30;100.00;103162.06;4997501;28;20026;-81
2022/01/24 01:07:08;;;;;;;82.78;29.60;;;;;;;4.40;100.00;103152.88;4985320;28;20039;-81
2022/01/24 01:18:11;;;;;;;80.05;28.65;;;;;;;4.35;100.00;103148.44;5003680;28;20133;-80
2022/01/24 01:23:18;;;;;;;80.63;28.70;;;;;;;4.23;100.00;103149.50;5013497;28;20030;-81
2022/01/24 01:25:44;;;;;;;81.88;31.20;;;;;;;4.09;100.00;103141.59;4988494;28;20031;-80
2022/01/24 01:28:10;;;;;;;79.70;29.15;;;;;;;4.11;100.00;103131.63;4995173;28;20054;-81
2022/01/24 01:30:41;;;;;;;77.75;29.00;;;;;;;4.22;100.00;103140.50;5009909;28;20026;-82
2022/01/24 01:33:23;;;;;;;89.30;31.85;;;;;;;4.10;100.00;103146.13;4997323;28;20029;-81
2022/01/24 01:57:15;;;;;;;74.60;25.70;;;;;;;4.12;100.00;103143.38;4990219;28;20449;-80
2022/01/24 01:59:41;;;;;;;82.55;25.88;;;;;;;4.07;100.00;103138.03;4995804;28;20041;-81
2022/01/24 02:02:07;;;;;;;72.72;25.20;;;;;;;4.09;100.00;103140.72;4977710;28;20023;-81
2022/01/24 02:04:32;;;;;;;82.07;26.55;;;;;;;4.07;100.00;103140.75;5007201;28;20113;-81
2022/01/24 02:06:58;;;;;;;65.85;24.55;;;;;;;4.10;100.00;103138.00;4984345;28;20030;-81
2022/01/24 02:09:29;;;;;;;73.97;25.42;;;;;;;4.15;100.00;103140.59;5005127;28;20487;-80
2022/01/24 02:11:55;;;;;;;73.82;25.90;;;;;;;4.00;100.00;103133.59;5022744;28;20577;-82
2022/01/24 02:14:23;;;;;;;68.15;24.35;;;;;;;4.03;100.00;103144.41;4987782;28;20117;-82
2022/01/24 02:16:58;;;;;;;79.10;27.27;;;;;;;3.94;100.00;103141.84;5004289;28;20040;-81
2022/01/24 02:19:47;;;;;;;65.25;24.67;;;;;;;4.03;100.00;103134.47;5022007;28;20379;-80
2022/01/24 02:25:01;;;;;;;79.60;26.70;;;;;;;4.08;100.00;103130.78;5011328;28;20093;-81
2022/01/24 02:27:39;;;;;;;75.00;25.00;;;;;;;4.09;100.00;103125.34;4991343;28;20039;-81
2022/01/24 02:30:23;;;;;;;74.95;25.98;;;;;;;4.02;100.00;103129.97;5019173;28;20508;-82
2022/01/24 02:32:49;;;;;;;77.15;27.17;;;;;;;3.99;100.00;103129.13;5012741;28;20074;-82
2022/01/24 02:35:14;;;;;;;78.82;27.88;;;;;;;3.99;100.00;103124.56;5001425;28;20030;-81
2022/01/24 02:37:40;;;;;;;80.53;27.30;;;;;;;3.90;100.00;103115.69;5007820;28;20035;-82
2022/01/24 02:40:14;;;;;;;78.82;26.55;;;;;;;3.93;100.00;103121.06;5018494;28;20053;-81
2022/01/24 02:48:30;;;;;;;77.90;27.58;;;;;;;4.11;100.00;103128.03;5022283;28;20459;-81
2022/01/24 02:53:37;;;;;;;89.63;27.77;;;;;;;4.02;100.00;103107.38;4991936;28;20096;-81
2022/01/24 02:56:04;;;;;;;77.50;27.20;;;;;;;4.04;100.00;103109.13;4999681;28;20030;-81
2022/01/24 02:58:31;;;;;;;77.07;26.55;;;;;;;4.15;100.00;103114.41;5001676;28;20402;-81
2022/01/24 03:00:56;;;;;;;77.50;27.52;;;;;;;4.05;100.00;103107.34;4981265;28;20034;-80
2022/01/24 03:03:23;;;;;;;90.80;27.63;;;;;;;3.98;100.00;103102.91;4993243;28;20838;-81
2022/01/24 03:05:49;;;;;;;77.22;28.33;;;;;;;3.91;100.00;103104.81;5035126;28;20113;-81
2022/01/24 03:08:15;;;;;;;73.75;25.75;;;;;;;4.07;100.00;103105.50;5012016;28;20139;-81
2022/01/24 03:10:46;;;;;;;68.10;25.33;;;;;;;4.05;100.00;103110.06;5027194;28;20414;-81
2022/01/24 03:15:41;;;;;;;68.60;25.13;;;;;;;4.09;100.00;103111.78;5016946;28;20499;-81
2022/01/24 03:18:07;;;;;;;72.40;26.00;;;;;;;4.18;100.00;103105.31;5008855;28;20034;-81
2022/01/24 03:20:34;;;;;;;74.00;25.58;;;;;;;4.13;100.00;103104.50;5000846;28;20033;-82
2022/01/24 03:23:00;;;;;;;75.72;26.98;;;;;;;4.01;100.00;103098.34;5032206;28;20117;-82
2022/01/24 03:25:27;;;;;;;72.32;26.27;;;;;;;3.91;100.00;103096.69;5002335;28;20117;-82
2022/01/24 03:27:52;;;;;;;73.20;26.05;;;;;;;4.01;100.00;103101.03;5029377;28;20089;-82
2022/01/24 03:30:18;;;;;;;73.20;26.98;;;;;;;4.04;100.00;103097.41;5018459;28;20069;-82
2022/01/24 03:32:43;;;;;;;77.97;26.25;;;;;;;3.99;100.00;103097.47;5033002;28;20068;-81
2022/01/24 03:35:09;;;;;;;70.15;26.05;;;;;;;4.07;100.00;103100.06;5007603;28;20038;-82
2022/01/24 03:37:35;;;;;;;74.90;26.42;;;;;;;4.02;100.00;103094.72;4975941;28;20042;-81
2022/01/24 03:40:02;;;;;;;71.30;25.95;;;;;;;4.01;100.00;103092.03;5031173;28;20053;-81
2022/01/24 03:42:28;;;;;;;79.43;26.13;;;;;;;3.99;100.00;103092.06;5034114;28;20037;-82
2022/01/24 03:44:57;;;;;;;78.40;26.00;;;;;;;4.03;100.00;103103.75;4983797;28;20038;-81
2022/01/24 03:50:03;;;;;;;76.25;25.83;;;;;;;4.02;100.00;103101.97;5030625;28;20129;-82
2022/01/24 03:52:30;;;;;;;83.82;26.63;;;;;;;3.86;100.00;103088.63;5027749;28;20026;-82
2022/01/24 03:54:56;;;;;;;81.88;26.48;;;;;;;3.94;100.00;103093.06;4992332;28;20093;-81
2022/01/24 03:57:22;;;;;;;74.50;24.73;;;;;;;3.92;100.00;103093.09;5003103;28;20509;-82
2022/01/24 03:59:48;;;;;;;72.40;25.98;;;;;;;4.00;100.00;103096.56;5003141;28;20026;-82
2022/01/24 04:02:14;;;;;;;83.97;27.25;;;;;;;3.80;100.00;103102.25;5001174;28;20498;-82
2022/01/24 04:04:40;;;;;;;80.50;27.42;;;;;;;3.88;100.00;103096.75;4997357;28;20038;-82
2022/01/24 04:07:07;;;;;;;77.80;28.10;;;;;;;3.97;100.00;103101.16;5000157;28;20027;-81
2022/01/24 04:09:34;;;;;;;86.63;28.60;;;;;;;3.90;100.00;103083.16;4993050;28;20035;-82
2022/01/24 04:12:01;;;;;;;80.32;28.55;;;;;;;3.85;100.00;103092.28;5001060;28;20042;-81
2022/01/24 04:22:09;;;;;;;88.57;29.13;;;;;;;3.81;100.00;103093.22;4994646;28;20061;-82
2022/01/24 04:24:35;;;;;;;85.40;29.77;;;;;;;3.80;100.00;103099.53;4997679;28;20034;-81
2022/01/24 04:27:00;;;;;;;79.78;29.58;;;;;;;3.81;100.00;103087.81;4994377;28;20105;-81
2022/01/24 04:29:26;;;;;;;90.68;30.95;;;;;;;3.78;100.00;103098.69;4998750;28;20030;-80
2022/01/24 04:31:52;;;;;;;83.03;29.92;;;;;;;3.76;100.00;103081.56;5015802;28;20041;-80
2022/01/24 04:34:17;;;;;;;94.45;30.92;;;;;;;3.70;100.00;103088.88;5016032;28;20042;-81
2022/01/24 04:36:43;;;;;;;91.65;30.05;;;;;;;3.75;100.00;103098.72;4983667;28;20718;-81
2022/01/24 04:39:10;;;;;;;85.78;30.10;;;;;;;3.64;100.00;103087.13;5004579;28;20165;-81
2022/01/24 04:41:39;;;;;;;96.93;33.10;;;;;;;3.62;100.00;103083.56;5001580;28;20057;-79
2022/01/24 04:56:59;;;;;;;96.30;33.92;;;;;;;3.41;100.00;103101.91;4997305;28;20042;-82
2022/01/24 04:59:25;;;;;;;92.90;31.52;;;;;;;3.37;100.00;103102.84;5016532;28;20027;-81
2022/01/24 05:01:51;;;;;;;89.80;30.88;;;;;;;3.58;100.00;103103.50;5012858;28;20038;-82
2022/01/24 05:04:16;;;;;;;96.50;30.80;;;;;;;3.54;100.00;103101.72;5014127;28;20018;-81
2022/01/24 05:06:41;;;;;;;99.03;30.77;;;;;;;3.41;100.00;103093.78;5010097;28;20045;-80
2022/01/24 05:09:07;;;;;;;101.57;33.85;;;;;;;3.45;100.00;103105.47;4994574;28;20030;-81
2022/01/24 05:11:48;;;;;;;89.82;29.90;;;;;;;3.54;100.00;103101.72;5016696;28;20039;-81
2022/01/24 05:25:09;;;;;;;95.72;31.45;;;;;;;3.40;100.00;103105.53;4988373;28;20028;-80
2022/01/24 05:27:35;;;;;;;95.30;32.65;;;;;;;3.42;100.00;103100.09;4999561;28;20051;-80
2022/01/24 05:30:01;;;;;;;95.15;32.55;;;;;;;3.32;100.00;103104.72;5004067;28;20049;-80
2022/01/24 05:32:26;;;;;;;92.57;32.97;;;;;;;3.30;100.00;103107.44;4995256;28;20038;-80
2022/01/24 05:34:52;;;;;;;91.45;32.38;;;;;;;3.27;100.00;103099.34;4979346;28;20038;-81
2022/01/24 05:37:17;;;;;;;97.75;31.95;;;;;;;3.28;100.00;103102.94;5006219;28;20030;-80
2022/01/24 05:39:43;;;;;;;87.97;31.17;;;;;;;3.21;100.00;103103.94;5003232;28;20050;-79
2022/01/24 05:42:09;;;;;;;86.28;29.75;;;;;;;3.17;100.00;103102.22;4999422;28;20121;-80
2022/01/24 05:44:34;;;;;;;87.68;30.58;;;;;;;3.37;100.00;103105.56;5030481;28;20389;-80
2022/01/24 05:47:01;;;;;;;82.28;28.98;;;;;;;3.26;100.00;103102.09;5002170;28;20033;-81
2022/01/24 05:49:27;;;;;;;83.72;29.08;;;;;;;3.16;100.00;103111.22;4998992;28;20037;-80
2022/01/24 05:51:52;;;;;;;75.30;27.63;;;;;;;3.08;100.00;103100.50;5034758;28;20034;-79
2022/01/24 05:54:18;;;;;;;87.38;31.38;;;;;;;3.08;100.00;103108.59;5030728;28;20042;-80
2022/01/24 05:56:43;;;;;;;87.35;28.85;;;;;;;2.99;100.00;103120.44;5007831;28;20038;-79
2022/01/24 05:59:09;;;;;;;86.13;31.05;;;;;;;3.11;100.00;103112.16;5018010;28;20034;-78
2022/01/24 06:01:34;;;;;;;81.15;29.08;;;;;;;3.16;100.00;103119.34;5020959;28;20031;-81
2022/01/24 06:04:00;;;;;;;90.32;29.73;;;;;;;3.19;100.00;103122.03;5011303;28;20025;-80
2022/01/24 06:06:25;;;;;;;81.55;29.67;;;;;;;3.01;100.00;103120.41;4975377;28;20047;-80
2022/01/24 06:08:51;;;;;;;91.55;30.05;;;;;;;3.14;100.00;103127.50;5010731;28;20031;-80
2022/01/24 06:11:17;;;;;;;83.75;29.23;;;;;;;3.03;100.00;103115.88;5010585;28;20157;-80
2022/01/24 06:13:45;;;;;;;79.82;28.08;;;;;;;3.14;100.00;103127.50;5008070;28;20069;-80
2022/01/24 06:16:11;;;;;;;79.40;28.23;;;;;;;3.07;100.00;103129.38;4992560;28;20034;-78
2022/01/24 06:18:36;;;;;;;87.30;29.92;;;;;;;3.00;100.00;103122.25;4996229;28;20515;-79
2022/01/24 06:21:02;;;;;;;91.50;30.85;;;;;;;3.00;100.00;103119.53;4986782;28;20053;-80
2022/01/24 06:23:28;;;;;;;82.10;28.88;;;;;;;2.97;100.00;103108.75;5009328;28;20475;-81
2022/01/24 06:25:53;;;;;;;93.45;29.25;;;;;;;2.95;100.00;103113.25;4992402;28;20033;-84
2022/01/24 06:28:19;;;;;;;76.53;28.25;;;;;;;2.93;100.00;103107.84;5004751;28;20508;-81
2022/01/24 06:30:44;;;;;;;78.18;28.30;;;;;;;2.94;100.00;103114.19;4986573;28;20037;-81
2022/01/24 06:33:10;;;;;;;80.30;27.73;;;;;;;2.90;100.00;103109.69;4998474;28;20030;-81
2022/01/24 06:35:35;;;;;;;94.25;29.58;;;;;;;2.97;100.00;103113.22;5005032;28;20041;-81
2022/01/24 06:38:01;;;;;;;83.65;28.33;;;;;;;2.94;100.00;103111.47;4985358;28;20034;-81
2022/01/24 06:40:26;;;;;;;87.00;28.58;;;;;;;3.00;100.00;103113.22;5000728;28;20050;-81
2022/01/24 06:42:52;;;;;;;87.57;29.08;;;;;;;2.85;100.00;103119.69;4999237;28;20498;-81
2022/01/24 06:45:18;;;;;;;77.78;27.95;;;;;;;2.83;100.00;103113.41;4999120;28;20382;-81
2022/01/24 06:47:44;;;;;;;79.10;28.30;;;;;;;2.83;100.00;103100.75;5015591;28;20121;-81
2022/01/24 06:50:10;;;;;;;78.47;29.20;;;;;;;2.88;100.00;103106.13;5000230;28;20150;-81
2022/01/24 06:52:35;;;;;;;74.15;27.48;;;;;;;2.89;100.00;103099.81;4999038;28;20038;-81
2022/01/24 06:55:00;;;;;;;76.65;28.42;;;;;;;2.84;100.00;103110.69;4999882;28;20102;-81
2022/01/24 06:57:26;;;;;;;76.07;29.65;;;;;;;2.83;100.00;103114.28;5032792;28;20035;-81
2022/01/24 06:59:51;;;;;;;69.07;26.35;;;;;;;2.65;100.00;103122.59;4985125;28;20506;-81
2022/01/24 07:02:17;;;;;;;81.25;28.60;;;;;;;2.85;100.00;103112.44;5017591;28;20040;-82
2022/01/24 07:04:44;;;;;;;73.47;26.85;;;;;;;2.68;100.00;103122.56;5001837;28;20034;-82
2022/01/24 07:07:11;;;;;;;79.07;27.40;;;;;;;2.79;100.00;103122.44;5000074;28;20432;-81
2022/01/24 07:09:36;;;;;;;69.07;23.63;;;;;;;2.84;100.00;103121.50;4999849;28;20117;-81
2022/01/24 07:12:03;;;;;;;72.45;26.65;;;;;;;2.66;100.00;103122.56;4999897;28;20124;-81
2022/01/24 07:14:29;;;;;;;76.65;28.00;;;;;;;2.67;100.00;103115.34;4999828;28;20035;-81
2022/01/24 07:19:28;;;;;;;70.13;26.38;;;;;;;2.73;100.00;103132.41;5000351;28;20053;-82
2022/01/24 07:21:55;;;;;;;74.32;26.48;;;;;;;2.75;100.00;103135.09;5018463;28;20042;-82
2022/01/24 07:24:22;;;;;;;73.68;28.02;;;;;;;2.71;100.00;103134.25;5010390;28;20270;-81
2022/01/24 07:26:47;;;;;;;81.90;28.13;;;;;;;2.72;100.00;103132.41;4989800;28;20483;-82
2022/01/24 07:29:13;;;;;;;76.00;26.27;;;;;;;2.65;100.00;103119.88;4999188;28;20042;-81
2022/01/24 07:31:40;;;;;;;73.05;27.25;;;;;;;2.62;100.00;103128.91;4988338;28;20043;-81
2022/01/24 07:34:05;;;;;;;70.40;26.63;;;;;;;2.64;100.00;103123.47;5027940;28;20030;-83
2022/01/24 07:36:31;;;;;;;74.50;27.33;;;;;;;2.60;100.00;103117.22;4991681;28;20499;-83
2022/01/24 07:38:56;;;;;;;83.93;27.15;;;;;;;2.57;100.00;103123.56;4994798;28;20046;-80
2022/01/24 07:41:28;;;;;;;76.78;26.95;;;;;;;2.70;100.00;103132.44;5014194;28;20042;-80
2022/01/24 07:43:54;;;;;;;83.47;26.25;;;;;;;2.61;100.00;103132.53;4981611;28;20034;-79
2022/01/24 07:46:20;;;;;;;64.18;24.85;;;;;;;2.49;100.00;103129.94;4998722;28;20042;-79
2022/01/24 07:48:45;;;;;;;63.42;24.52;;;;;;;2.63;100.00;103121.72;4996450;28;20625;-78
2022/01/24 07:51:11;;;;;;;78.00;27.60;;;;;;;2.57;100.00;103136.16;5022060;28;20038;-79
2022/01/24 07:53:37;;;;;;;69.07;24.92;;;;;;;2.69;100.00;103136.06;5012783;28;20045;-78
2022/01/24 07:56:04;;;;;;;73.38;25.75;;;;;;;2.69;100.00;103138.78;4990448;28;20110;-79
2022/01/24 07:58:29;;;;;;;64.55;24.77;;;;;;;2.62;100.00;103134.31;4984449;28;20035;-80
2022/01/24 08:00:55;;;;;;;71.15;24.90;;;;;;;2.63;100.00;103141.53;5018510;28;20049;-80
2022/01/24 08:03:21;;;;;;;69.18;26.70;;;;;;;2.73;100.00;103153.16;4994649;28;20045;-79
2022/01/24 08:05:46;;;;;;;72.13;25.00;;;;;;;2.69;100.00;103163.13;5023250;28;20390;-79
2022/01/24 08:08:14;;;;;;;74.13;24.80;;;;;;;2.76;100.00;103166.66;4994967;28;20409;-79
2022/01/24 08:10:40;;;;;;;64.15;24.13;;;;;;;2.80;100.00;103170.22;4987365;28;20049;-79
2022/01/24 08:13:05;;;;;;;78.00;25.75;;;;;;;2.67;100.00;103166.72;5017465;28;20030;-79
2022/01/24 08:15:31;;;;;;;64.95;23.25;;;;;;;2.69;100.00;103167.59;4991405;28;20037;-78
2022/01/24 08:17:57;;;;;;;64.95;25.15;;;;;;;2.82;100.00;103155.78;5021399;28;20045;-79
2022/01/24 08:20:23;;;;;;;66.45;24.92;;;;;;;2.92;100.00;103173.72;4983748;28;20038;-79
2022/01/24 08:22:49;;;;;;;63.20;23.90;;;;;;;2.84;100.00;103167.50;4990654;28;20085;-78
2022/01/24 08:25:15;;;;;;;64.03;23.90;;;;;;;2.82;100.00;103169.31;4989911;28;20031;-78
2022/01/24 08:27:47;;;;;;;69.28;24.65;;;;;;;2.82;100.00;103168.41;4994862;28;20113;-78
2022/01/24 08:30:16;;;;;;;62.92;24.00;;;;;;;2.83;100.00;103173.78;4992538;28;20516;-79
2022/01/24 08:32:42;;;;;;;67.25;24.88;;;;;;;2.85;100.00;103171.97;4994989;28;20092;-78
2022/01/24 08:35:09;;;;;;;65.97;25.40;;;;;;;2.81;100.00;103170.22;4978698;28;20043;-79
2022/01/24 08:37:35;;;;;;;73.05;26.15;;;;;;;2.86;100.00;103160.25;4998036;28;20037;-78
2022/01/24 08:40:00;;;;;;;65.80;24.88;;;;;;;2.87;100.00;103161.13;5012199;28;20102;-79
2022/01/24 08:42:37;;;;;;;68.80;23.92;;;;;;;2.87;100.00;103153.00;4996160;28;20112;-78
2022/01/24 08:47:36;;;;;;;68.97;24.35;;;;;;;2.98;100.00;103163.75;4997399;28;20038;-81
2022/01/24 08:50:04;;;;;;;64.72;24.52;;;;;;;2.99;100.00;103158.31;4980049;28;20030;-79
2022/01/24 08:52:30;;;;;;;66.65;23.65;;;;;;;3.09;100.00;103173.53;4995459;28;20035;-80
2022/01/24 08:54:56;;;;;;;52.88;22.08;;;;;;;3.09;100.00;103160.00;5013719;28;20105;-80
2022/01/24 08:57:25;;;;;;;61.13;24.08;;;;;;;3.03;100.00;103145.66;4993635;28;20046;-78
2022/01/24 08:59:55;;;;;;;57.58;21.75;;;;;;;3.06;100.00;103156.44;5004979;28;20129;-79
2022/01/24 09:02:22;;;;;;;69.50;24.42;;;;;;;3.14;100.00;103162.69;4984878;28;20068;-80
2022/01/24 09:04:48;;;;;;;55.63;23.00;;;;;;;3.26;100.00;103158.94;4994088;28;20035;-80
2022/01/24 09:07:16;;;;;;;68.25;22.63;;;;;;;3.43;100.00;103148.81;4990817;28;20038;-80
2022/01/24 09:09:41;;;;;;;56.50;22.75;;;;;;;3.62;100.00;103154.91;4995549;28;20174;-79
2022/01/24 09:12:11;;;;;;;62.47;23.42;;;;;;;3.70;100.00;103149.38;5025495;28;20042;-79
2022/01/24 09:14:39;;;;;;;52.45;22.98;;;;;;;3.91;100.00;103153.59;5011881;28;20046;-79
2022/01/24 09:17:04;;;;;;;62.88;22.58;;;;;;;4.16;100.00;103150.53;4995416;28;20088;-79
2022/01/24 09:19:30;;;;;;;54.75;22.17;;;;;;;3.98;100.00;103154.41;4996921;28;20026;-79
2022/01/24 09:21:55;;;;;;;58.47;22.70;;;;;;;4.08;100.00;103153.34;4995293;28;20430;-80
2022/01/24 09:24:21;;;;;;;62.35;21.80;;;;;;;4.32;100.00;103152.09;4994665;28;20026;-80
2022/01/24 09:26:47;;;;;;;56.97;23.50;;;;;;;4.32;100.00;103152.09;4995143;28;20093;-78
2022/01/24 09:29:12;;;;;;;58.75;23.05;;;;;;;4.11;100.00;103147.00;4992654;28;20042;-78
2022/01/24 09:31:38;;;;;;;68.50;24.67;;;;;;;4.04;100.00;103148.91;5008143;28;20022;-78
2022/01/24 09:34:03;;;;;;;53.42;22.77;;;;;;;4.37;100.00;103154.75;4994572;28;20426;-78
2022/01/24 09:36:29;;;;;;;59.25;23.67;;;;;;;4.59;100.00;103153.47;4996000;28;20045;-78
2022/01/24 09:38:54;;;;;;;53.92;21.83;;;;;;;4.85;100.00;103153.94;4995462;28;20050;-78
2022/01/24 09:41:20;;;;;;;52.50;21.42;;;;;;;4.97;100.00;103156.44;4998991;28;20081;-79
2022/01/24 09:43:45;;;;;;;55.83;20.90;;;;;;;4.45;100.00;103149.19;4994349;28;20049;-80
2022/01/24 09:46:12;;;;;;;47.97;21.55;;;;;;;4.87;100.00;103158.41;5020416;28;20112;-78
2022/01/24 09:48:39;;;;;;;44.67;19.80;;;;;;;4.76;100.00;103150.47;4996024;28;20077;-80
2022/01/24 09:51:05;;;;;;;48.85;20.33;;;;;;;5.05;100.00;103150.84;4995221;28;20033;-78
2022/01/24 09:53:32;;;;;;;50.53;21.00;;;;;;;5.33;100.00;103156.66;4997285;28;20054;-78
2022/01/24 09:56:02;;;;;;;49.38;20.35;;;;;;;5.09;100.00;103150.75;4999902;28;20041;-79
2022/01/24 09:58:28;;;;;;;50.85;21.70;;;;;;;5.03;100.00;103142.72;4999053;28;20037;-79
2022/01/24 10:00:53;;;;;;;56.25;22.17;;;;;;;5.05;100.00;103145.41;4995322;28;20039;-80
2022/01/24 10:03:24;;;;;;;48.63;21.08;;;;;;;5.32;100.00;103149.44;5000675;28;20537;-79
2022/01/24 10:05:56;;;;;;;61.20;21.20;;;;;;;5.26;100.00;103138.66;4999543;28;20035;-79
2022/01/24 10:08:24;;;;;;;57.33;21.35;;;;;;;5.66;100.00;103144.19;5010974;28;20046;-78
2022/01/24 10:10:55;;;;;;;46.92;21.63;;;;;;;5.45;100.00;103136.50;4975310;28;20043;-80
2022/01/24 10:16:44;;;;;;;55.38;22.13;;;;;;;5.53;100.00;103158.97;4999861;28;20049;-84
2022/01/24 10:19:19;;;;;;;58.50;21.63;;;;;;;5.76;100.00;103147.59;5001724;28;20030;-82
2022/01/24 10:21:48;;;;;;;54.92;20.13;;;;;;;5.43;100.00;103149.22;5002570;28;20030;-82
2022/01/24 10:24:35;;;;;;;49.95;19.17;;;;;;;5.49;100.00;103136.41;4999759;28;20046;-81
2022/01/24 10:27:13;;;;;;;50.90;20.08;;;;;;;5.37;100.00;103139.34;5005810;28;20374;-82
2022/01/24 10:29:48;;;;;;;51.92;20.48;;;;;;;5.62;100.00;103134.28;5001245;28;20580;-82
2022/01/24 10:32:49;;;;;;;53.78;20.17;;;;;;;5.57;100.00;103146.19;5034343;28;20417;-82
2022/01/24 10:35:30;;;;;;;54.45;20.10;;;;;;;5.47;100.00;103150.94;4986666;28;20054;-81
2022/01/24 10:38:52;;;;;;;42.28;18.27;;;;;;;5.37;100.00;103146.63;4999231;28;20053;-81
2022/01/24 10:41:22;;;;;;;50.95;20.30;;;;;;;5.76;100.00;103144.88;5000046;28;20051;-82
2022/01/24 10:43:48;;;;;;;44.08;19.15;;;;;;;5.88;100.00;103146.44;5000545;28;20022;-82
2022/01/24 10:46:20;;;;;;;38.47;17.60;;;;;;;5.86;100.00;103151.00;5000239;28;20030;-81
2022/01/24 10:48:47;;;;;;;47.23;20.20;;;;;;;5.81;100.00;103131.19;5019641;28;20034;-81
2022/01/24 10:51:19;;;;;;;50.85;19.80;;;;;;;5.94;100.00;103124.53;5016747;28;20026;-81
2022/01/24 10:53:56;;;;;;;47.25;18.58;;;;;;;5.69;100.00;103126.94;5025962;28;20141;-80
2022/01/24 10:56:35;;;;;;;49.80;18.67;;;;;;;6.14;100.00;103126.81;5019850;28;20034;-82
2022/01/24 10:59:10;;;;;;;49.85;19.65;;;;;;;6.09;100.00;103127.88;5001804;28;20034;-83
2022/01/24 11:01:36;;;;;;;52.70;20.85;;;;;;;6.36;100.00;103116.34;4999885;28;20034;-82
2022/01/24 11:04:10;;;;;;;40.35;18.50;;;;;;;7.01;100.00;103111.91;5010307;28;20069;-82
2022/01/24 11:06:43;;;;;;;51.97;19.88;;;;;;;6.29;100.00;103105.63;5018045;28;20027;-81
2022/01/24 11:09:24;;;;;;;54.13;21.17;;;;;;;6.05;100.00;103108.91;4983760;28;20038;-82
2022/01/24 11:12:11;;;;;;;61.15;21.48;;;;;;;6.18;100.00;103109.53;4984258;28;20026;-82
2022/01/24 11:14:42;;;;;;;48.80;21.15;;;;;;;6.31;100.00;103109.19;4998240;28;20030;-83
2022/01/24 11:17:12;;;;;;;48.95;20.42;;;;;;;6.15;100.00;103106.88;5001200;28;20034;-81
2022/01/24 11:22:06;;;;;;;47.80;21.00;;;;;;;6.38;100.00;103109.03;5009751;28;21608;-85
2022/01/24 11:27:05;;;;;;;53.88;22.10;;;;;;;6.50;100.00;103098.75;5016212;28;20458;-82
2022/01/24 11:29:33;;;;;;;52.00;21.60;;;;;;;6.43;100.00;103103.47;5034777;28;20365;-82
2022/01/24 11:32:16;;;;;;;60.55;22.08;;;;;;;6.30;100.00;103111.03;5019260;28;20037;-82
2022/01/24 11:34:47;;;;;;;61.65;22.55;;;;;;;5.92;100.00;103090.16;4986620;28;20556;-82
2022/01/24 11:37:34;;;;;;;53.22;23.30;;;;;;;6.23;100.00;103101.22;5034247;28;20395;-82
2022/01/24 11:40:01;;;;;;;50.30;22.83;;;;;;;5.91;100.00;103083.84;5001897;28;20042;-82
2022/01/24 11:42:33;;;;;;;61.08;24.35;;;;;;;5.64;100.00;103075.38;5033963;28;20034;-82
2022/01/24 11:45:05;;;;;;;57.83;25.45;;;;;;;5.60;100.00;103108.09;5034186;28;20022;-81
2022/01/24 11:47:31;;;;;;;53.63;22.98;;;;;;;6.04;100.00;103095.34;4991319;28;20482;-82
2022/01/24 11:49:57;;;;;;;68.97;28.80;;;;;;;5.73;100.00;103106.00;5001226;28;20070;-81
2022/01/24 11:52:32;;;;;;;65.55;27.75;;;;;;;5.62;100.00;103104.41;5017507;28;20057;-81
2022/01/24 11:57:47;;;;;;;69.25;26.80;;;;;;;5.59;100.00;103109.00;5033416;28;20038;-81
2022/01/24 12:00:15;;;;;;;69.30;28.23;;;;;;;5.63;100.00;103100.75;5001304;28;20041;-81
2022/01/24 12:02:56;;;;;;;74.30;30.55;;;;;;;5.60;100.00;103097.22;4998935;28;20038;-82
2022/01/24 12:05:24;;;;;;;68.78;29.95;;;;;;;5.61;100.00;103085.44;5021714;28;20030;-81
2022/01/24 12:07:58;;;;;;;75.80;31.92;;;;;;;5.51;100.00;103087.47;5019620;28;20026;-83
2022/01/24 12:10:24;;;;;;;75.68;33.40;;;;;;;5.47;100.00;103088.44;5012536;28;20046;-82
2022/01/24 12:12:59;;;;;;;85.35;33.95;;;;;;;5.34;100.00;103072.44;5006175;28;20034;-81
2022/01/24 12:15:37;;;;;;;81.70;33.40;;;;;;;5.37;100.00;103086.88;5000534;28;20034;-81
2022/01/24 12:18:04;;;;;;;84.57;36.05;;;;;;;5.38;100.00;103081.41;5016905;28;20057;-81
2022/01/24 12:20:29;;;;;;;76.45;32.60;;;;;;;5.44;100.00;103083.97;4982967;28;20038;-81
2022/01/24 12:22:55;;;;;;;81.95;34.28;;;;;;;5.44;100.00;103080.34;5013228;28;20430;-82
2022/01/24 12:25:57;;;;;;;87.40;36.75;;;;;;;5.45;100.00;103082.16;5033528;28;20038;-80
2022/01/24 12:28:29;;;;;;;77.68;32.38;;;;;;;5.09;100.00;103082.88;4999828;28;20042;-80
2022/01/24 12:31:07;;;;;;;78.18;31.15;;;;;;;5.19;100.00;103078.16;4984372;28;20023;-82
2022/01/24 12:33:38;;;;;;;92.05;35.13;;;;;;;5.58;100.00;103080.97;5009263;28;20188;-80
2022/01/24 12:36:09;;;;;;;88.63;33.22;;;;;;;5.61;100.00;103080.00;4998807;28;20443;-80
2022/01/24 12:38:52;;;;;;;88.97;36.67;;;;;;;5.71;100.00;103066.16;4991705;28;20398;-79
2022/01/24 12:41:21;;;;;;;86.63;33.78;;;;;;;5.65;100.00;103069.00;4997549;28;20485;-81
2022/01/24 12:43:56;;;;;;;89.43;36.97;;;;;;;5.55;100.00;103070.16;5002675;28;20026;-81
2022/01/24 12:46:27;;;;;;;88.80;34.47;;;;;;;5.39;100.00;103066.88;5002522;28;20370;-82
2022/01/24 12:48:55;;;;;;;88.53;35.33;;;;;;;5.49;100.00;103053.97;4989669;28;20673;-82
2022/01/24 12:51:22;;;;;;;89.78;35.38;;;;;;;5.46;100.00;103067.63;5012501;28;20038;-81
2022/01/24 12:53:49;;;;;;;91.80;35.42;;;;;;;5.45;100.00;103063.13;5037606;28;20044;-82
2022/01/24 12:56:18;;;;;;;94.55;36.83;;;;;;;5.17;100.00;103054.69;5000012;28;20027;-81
2022/01/24 12:58:46;;;;;;;92.72;37.40;;;;;;;5.19;100.00;103055.56;5015768;28;20343;-79
2022/01/24 13:01:27;;;;;;;89.75;35.55;;;;;;;5.03;100.00;103055.84;4981864;28;20026;-80
2022/01/24 13:03:58;;;;;;;91.85;34.42;;;;;;;5.14;100.00;103052.94;5001921;28;20056;-82
2022/01/24 13:06:31;;;;;;;95.55;36.70;;;;;;;5.21;100.00;103048.25;4988358;28;20048;-81
2022/01/24 13:09:00;;;;;;;103.18;37.55;;;;;;;5.07;100.00;103044.00;5005005;28;20034;-82
2022/01/24 13:11:28;;;;;;;91.57;35.50;;;;;;;5.13;100.00;103048.41;5002052;28;20683;-81
2022/01/24 13:14:07;;;;;;;95.57;35.10;;;;;;;4.99;100.00;103040.56;4984519;28;20044;-82
2022/01/24 13:25:12;;;;;;;100.78;36.25;;;;;;;4.91;100.00;103024.41;5003749;28;20034;-80